CheckWX is a tool to help pilots better visualize weather data.  It is not intended as a substitute for an official pre-flight weather briefing.

02:55:02 UTC

KCYS METAR
Cheyenne Regional / Jerry Olson Field Airport
Cheyenne, Wyoming, USA
Current

1 hour ago

KCYS 240153Z 35008G16KT 10SM OVC045 05/M02 A2998 RMK AO2 SLP144 T00501017
Observed
Mar-24 @ 01:53 UTC
Wind
  • 350° at 8 KTS
  • Gusting to 16 KTS
Visibility
10 SM
Flight Rules
VFR
Cloud Levels
  • Overcast at 4,500' AGL
Temperature
C / 41°F
Dewpoint
-2°C / 28°F
Humidity
61%
Altimeter
29.98" Hg
Pressure
1014.4 hPa
Previous

2 hours ago

KCYS 240053Z 32010KT 10SM SCT044 BKN060 OVC090 06/M01 A2996 RMK AO2 SLP135 T00561011
Observed
Mar-24 @ 00:53 UTC
Wind
  • 320° at 10 KTS
Visibility
10 SM
Flight Rules
VFR
Cloud Levels
  • Scattered at 4,400' AGL
  • Broken at 6,000' AGL
  • Overcast at 9,000' AGL
Temperature
C / 43°F
Dewpoint
-1°C / 30°F
Humidity
61%
Altimeter
29.96" Hg
Pressure
1013.5 hPa
Previous

3 hours ago

KCYS 232353Z 34014G23KT 10SM OVC055 06/M01 A2995 RMK AO2 PK WND 33027/2259 SLP129 60001 T00561006 10056 20028 53006
Observed
Mar-23 @ 23:53 UTC
Wind
  • 340° at 14 KTS
  • Gusting to 23 KTS
Visibility
10 SM
Flight Rules
VFR
Cloud Levels
  • Overcast at 5,500' AGL
Temperature
C / 43°F
Dewpoint
-1°C / 30°F
Humidity
61%
Altimeter
29.95" Hg
Pressure
1012.9 hPa